sensor_id;sensor_type;location;lat;lon;timestamp;temperature;humidity
4647;DHT22;2336;47.822;7.564;2023-12-04T00:00:04;-3.90;99.90
4647;DHT22;2336;47.822;7.564;2023-12-04T00:02:33;-3.90;99.90
4647;DHT22;2336;47.822;7.564;2023-12-04T00:05:00;-3.90;99.90
4647;DHT22;2336;47.822;7.564;2023-12-04T00:07:27;-3.90;99.90
4647;DHT22;2336;47.822;7.564;2023-12-04T00:09:54;-3.90;99.90
4647;DHT22;2336;47.822;7.564;2023-12-04T00:12:20;-3.80;99.90
4647;DHT22;2336;47.822;7.564;2023-12-04T00:14:47;-3.80;99.90
4647;DHT22;2336;47.822;7.564;2023-12-04T00:17:14;-3.70;99.90
4647;DHT22;2336;47.822;7.564;2023-12-04T00:19:42;-3.70;99.90
4647;DHT22;2336;47.822;7.564;2023-12-04T00:22:09;-3.70;99.90
4647;DHT22;2336;47.822;7.564;2023-12-04T00:24:35;-3.70;99.90
4647;DHT22;2336;47.822;7.564;2023-12-04T00:27:03;-3.70;99.90
4647;DHT22;2336;47.822;7.564;2023-12-04T00:29:29;-3.80;99.90
4647;DHT22;2336;47.822;7.564;2023-12-04T00:31:56;-3.80;99.90
4647;DHT22;2336;47.822;7.564;2023-12-04T00:34:23;-3.80;99.90
4647;DHT22;2336;47.822;7.564;2023-12-04T00:36:51;-3.80;99.90
4647;DHT22;2336;47.822;7.564;2023-12-04T00:39:18;-3.80;99.90
4647;DHT22;2336;47.822;7.564;2023-12-04T00:41:44;-3.80;99.90
4647;DHT22;2336;47.822;7.564;2023-12-04T00:44:11;-3.80;99.90
4647;DHT22;2336;47.822;7.564;2023-12-04T00:46:38;-3.80;99.90
4647;DHT22;2336;47.822;7.564;2023-12-04T00:49:05;-3.80;99.90
4647;DHT22;2336;47.822;7.564;2023-12-04T00:51:37;-3.80;99.90
4647;DHT22;2336;47.822;7.564;2023-12-04T00:54:05;-3.90;99.90
4647;DHT22;2336;47.822;7.564;2023-12-04T00:56:32;-3.90;99.90
4647;DHT22;2336;47.822;7.564;2023-12-04T00:58:59;-3.90;99.90
4647;DHT22;2336;47.822;7.564;2023-12-04T01:01:26;-3.90;99.90
4647;DHT22;2336;47.822;7.564;2023-12-04T01:03:53;-3.90;99.90
4647;DHT22;2336;47.822;7.564;2023-12-04T01:06:23;-3.90;99.90
4647;DHT22;2336;47.822;7.564;2023-12-04T01:08:50;-3.90;99.90
4647;DHT22;2336;47.822;7.564;2023-12-04T01:11:18;-3.90;99.90
4647;DHT22;2336;47.822;7.564;2023-12-04T01:13:46;-3.90;99.90
4647;DHT22;2336;47.822;7.564;2023-12-04T01:16:12;-3.90;99.90
4647;DHT22;2336;47.822;7.564;2023-12-04T01:18:40;-3.90;99.90
4647;DHT22;2336;47.822;7.564;2023-12-04T01:21:07;-3.80;99.90
4647;DHT22;2336;47.822;7.564;2023-12-04T01:23:34;-3.80;99.90
4647;DHT22;2336;47.822;7.564;2023-12-04T01:26:01;-3.80;99.90
4647;DHT22;2336;47.822;7.564;2023-12-04T01:28:29;-3.90;99.90
4647;DHT22;2336;47.822;7.564;2023-12-04T01:30:56;-3.90;99.90
4647;DHT22;2336;47.822;7.564;2023-12-04T01:33:22;-3.90;99.90
4647;DHT22;2336;47.822;7.564;2023-12-04T01:35:49;-3.80;99.90
4647;DHT22;2336;47.822;7.564;2023-12-04T01:38:16;-3.80;99.90
4647;DHT22;2336;47.822;7.564;2023-12-04T01:40:43;-3.80;99.90
4647;DHT22;2336;47.822;7.564;2023-12-04T01:43:10;-3.80;99.90
4647;DHT22;2336;47.822;7.564;2023-12-04T01:45:38;-3.80;99.90
4647;DHT22;2336;47.822;7.564;2023-12-04T01:48:06;-3.80;99.90
4647;DHT22;2336;47.822;7.564;2023-12-04T01:50:34;-3.80;99.90
4647;DHT22;2336;47.822;7.564;2023-12-04T01:53:02;-3.80;99.90
4647;DHT22;2336;47.822;7.564;2023-12-04T01:55:29;-3.80;99.90
4647;DHT22;2336;47.822;7.564;2023-12-04T01:57:57;-3.90;99.90
4647;DHT22;2336;47.822;7.564;2023-12-04T02:00:24;-3.90;99.90
4647;DHT22;2336;47.822;7.564;2023-12-04T02:02:53;-3.80;99.90
4647;DHT22;2336;47.822;7.564;2023-12-04T02:05:21;-3.80;99.90
4647;DHT22;2336;47.822;7.564;2023-12-04T02:07:49;-3.80;99.90
4647;DHT22;2336;47.822;7.564;2023-12-04T02:10:16;-3.70;99.90
4647;DHT22;2336;47.822;7.564;2023-12-04T02:12:43;-3.60;99.90
4647;DHT22;2336;47.822;7.564;2023-12-04T02:15:10;-3.50;99.90
4647;DHT22;2336;47.822;7.564;2023-12-04T02:17:37;-3.50;99.90
4647;DHT22;2336;47.822;7.564;2023-12-04T02:20:08;-3.60;99.90
4647;DHT22;2336;47.822;7.564;2023-12-04T02:22:37;-3.60;99.90
4647;DHT22;2336;47.822;7.564;2023-12-04T02:25:07;-3.60;99.90
4647;DHT22;2336;47.822;7.564;2023-12-04T02:27:38;-3.70;99.90
4647;DHT22;2336;47.822;7.564;2023-12-04T02:30:11;-3.60;99.90
4647;DHT22;2336;47.822;7.564;2023-12-04T02:32:42;-3.50;99.90
4647;DHT22;2336;47.822;7.564;2023-12-04T02:35:09;-3.50;99.90
4647;DHT22;2336;47.822;7.564;2023-12-04T02:37:36;-3.50;99.90
4647;DHT22;2336;47.822;7.564;2023-12-04T02:40:06;-3.50;99.90
4647;DHT22;2336;47.822;7.564;2023-12-04T02:42:33;-3.60;99.90
4647;DHT22;2336;47.822;7.564;2023-12-04T02:45:00;-3.60;99.90
4647;DHT22;2336;47.822;7.564;2023-12-04T02:47:26;-3.60;99.90
4647;DHT22;2336;47.822;7.564;2023-12-04T02:49:53;-3.50;99.90
4647;DHT22;2336;47.822;7.564;2023-12-04T02:52:20;-3.50;99.90
4647;DHT22;2336;47.822;7.564;2023-12-04T02:54:47;-3.50;99.90
4647;DHT22;2336;47.822;7.564;2023-12-04T02:57:15;-3.50;99.90
4647;DHT22;2336;47.822;7.564;2023-12-04T02:59:42;-3.40;99.90
4647;DHT22;2336;47.822;7.564;2023-12-04T03:02:08;-3.50;99.90
4647;DHT22;2336;47.822;7.564;2023-12-04T03:04:35;-3.50;99.90
4647;DHT22;2336;47.822;7.564;2023-12-04T03:07:02;-3.40;99.90
4647;DHT22;2336;47.822;7.564;2023-12-04T03:09:29;-3.40;99.90
4647;DHT22;2336;47.822;7.564;2023-12-04T03:11:56;-3.40;99.90
4647;DHT22;2336;47.822;7.564;2023-12-04T03:14:24;-3.30;99.90
4647;DHT22;2336;47.822;7.564;2023-12-04T03:16:51;-3.30;99.90
4647;DHT22;2336;47.822;7.564;2023-12-04T03:19:17;-3.30;99.90
4647;DHT22;2336;47.822;7.564;2023-12-04T03:21:44;-3.30;99.90
4647;DHT22;2336;47.822;7.564;2023-12-04T03:24:11;-3.30;99.90
4647;DHT22;2336;47.822;7.564;2023-12-04T03:26:38;-3.20;99.90
4647;DHT22;2336;47.822;7.564;2023-12-04T03:29:04;-3.30;99.90
4647;DHT22;2336;47.822;7.564;2023-12-04T03:31:32;-3.30;99.90
4647;DHT22;2336;47.822;7.564;2023-12-04T03:33:59;-3.30;99.90
4647;DHT22;2336;47.822;7.564;2023-12-04T03:36:26;-3.30;99.90
4647;DHT22;2336;47.822;7.564;2023-12-04T03:38:53;-3.20;99.90
4647;DHT22;2336;47.822;7.564;2023-12-04T03:41:20;-3.20;99.90
4647;DHT22;2336;47.822;7.564;2023-12-04T03:43:47;-3.20;99.90
4647;DHT22;2336;47.822;7.564;2023-12-04T03:46:14;-3.20;99.90
4647;DHT22;2336;47.822;7.564;2023-12-04T03:48:42;-3.20;99.90
4647;DHT22;2336;47.822;7.564;2023-12-04T03:51:09;-3.10;99.90
4647;DHT22;2336;47.822;7.564;2023-12-04T03:53:36;-3.10;99.90
4647;DHT22;2336;47.822;7.564;2023-12-04T03:56:03;-3.10;99.90
4647;DHT22;2336;47.822;7.564;2023-12-04T03:58:30;-3.10;99.90
4647;DHT22;2336;47.822;7.564;2023-12-04T04:00:58;-3.00;99.90
4647;DHT22;2336;47.822;7.564;2023-12-04T04:03:25;-3.00;99.90
4647;DHT22;2336;47.822;7.564;2023-12-04T04:05:53;-3.00;99.90
4647;DHT22;2336;47.822;7.564;2023-12-04T04:08:19;-2.90;99.90
4647;DHT22;2336;47.822;7.564;2023-12-04T04:10:46;-2.90;99.90
4647;DHT22;2336;47.822;7.564;2023-12-04T04:13:13;-2.90;99.90
4647;DHT22;2336;47.822;7.564;2023-12-04T04:15:41;-2.80;99.90
4647;DHT22;2336;47.822;7.564;2023-12-04T04:18:08;-2.80;99.90
4647;DHT22;2336;47.822;7.564;2023-12-04T04:20:35;-2.80;99.90
4647;DHT22;2336;47.822;7.564;2023-12-04T04:23:03;-2.80;99.90
4647;DHT22;2336;47.822;7.564;2023-12-04T04:25:29;-2.80;99.90
4647;DHT22;2336;47.822;7.564;2023-12-04T04:27:56;-2.80;99.90
4647;DHT22;2336;47.822;7.564;2023-12-04T04:30:23;-2.80;99.90
4647;DHT22;2336;47.822;7.564;2023-12-04T04:32:50;-2.70;99.90
4647;DHT22;2336;47.822;7.564;2023-12-04T04:35:16;-2.70;99.90
4647;DHT22;2336;47.822;7.564;2023-12-04T04:37:43;-2.70;99.90
4647;DHT22;2336;47.822;7.564;2023-12-04T04:40:11;-2.60;99.90
4647;DHT22;2336;47.822;7.564;2023-12-04T04:42:38;-2.60;99.90
4647;DHT22;2336;47.822;7.564;2023-12-04T04:45:06;-2.60;99.90
4647;DHT22;2336;47.822;7.564;2023-12-04T04:47:33;-2.60;99.90
4647;DHT22;2336;47.822;7.564;2023-12-04T04:49:59;-2.60;99.90
4647;DHT22;2336;47.822;7.564;2023-12-04T04:52:26;-2.60;99.90
4647;DHT22;2336;47.822;7.564;2023-12-04T04:54:53;-2.60;99.90
4647;DHT22;2336;47.822;7.564;2023-12-04T04:57:21;-2.60;99.90
4647;DHT22;2336;47.822;7.564;2023-12-04T04:59:48;-2.60;99.90
4647;DHT22;2336;47.822;7.564;2023-12-04T05:02:14;-2.50;99.90
4647;DHT22;2336;47.822;7.564;2023-12-04T05:04:41;-2.50;99.90
4647;DHT22;2336;47.822;7.564;2023-12-04T05:07:08;-2.40;99.90
4647;DHT22;2336;47.822;7.564;2023-12-04T05:09:35;-2.50;99.90
4647;DHT22;2336;47.822;7.564;2023-12-04T05:12:02;-2.40;99.90
4647;DHT22;2336;47.822;7.564;2023-12-04T05:14:30;-2.40;99.90
4647;DHT22;2336;47.822;7.564;2023-12-04T05:16:57;-2.40;99.90
4647;DHT22;2336;47.822;7.564;2023-12-04T05:19:23;-2.40;99.90
4647;DHT22;2336;47.822;7.564;2023-12-04T05:21:50;-2.40;99.90
4647;DHT22;2336;47.822;7.564;2023-12-04T05:24:17;-2.40;99.90
4647;DHT22;2336;47.822;7.564;2023-12-04T05:26:44;-2.40;99.90
4647;DHT22;2336;47.822;7.564;2023-12-04T05:29:10;-2.40;99.90
4647;DHT22;2336;47.822;7.564;2023-12-04T05:31:39;-2.40;99.90
4647;DHT22;2336;47.822;7.564;2023-12-04T05:34:05;-2.30;99.90
4647;DHT22;2336;47.822;7.564;2023-12-04T05:36:32;-2.30;99.90
4647;DHT22;2336;47.822;7.564;2023-12-04T05:38:59;-2.30;99.90
4647;DHT22;2336;47.822;7.564;2023-12-04T05:41:26;-2.40;99.90
4647;DHT22;2336;47.822;7.564;2023-12-04T05:43:53;-2.30;99.90
4647;DHT22;2336;47.822;7.564;2023-12-04T05:46:20;-2.30;99.90
4647;DHT22;2336;47.822;7.564;2023-12-04T05:48:48;-2.30;99.90
4647;DHT22;2336;47.822;7.564;2023-12-04T05:51:15;-2.30;99.90
4647;DHT22;2336;47.822;7.564;2023-12-04T05:53:42;-2.30;99.90
4647;DHT22;2336;47.822;7.564;2023-12-04T05:56:09;-2.30;99.90
4647;DHT22;2336;47.822;7.564;2023-12-04T05:58:36;-2.30;99.90
4647;DHT22;2336;47.822;7.564;2023-12-04T06:01:04;-2.20;99.90
4647;DHT22;2336;47.822;7.564;2023-12-04T06:03:31;-2.20;99.90
4647;DHT22;2336;47.822;7.564;2023-12-04T06:06:00;-2.20;99.90
4647;DHT22;2336;47.822;7.564;2023-12-04T06:08:26;-2.20;99.90
4647;DHT22;2336;47.822;7.564;2023-12-04T06:10:53;-2.10;99.90
4647;DHT22;2336;47.822;7.564;2023-12-04T06:13:20;-2.00;99.90
4647;DHT22;2336;47.822;7.564;2023-12-04T06:15:47;-2.00;99.90
4647;DHT22;2336;47.822;7.564;2023-12-04T06:18:14;-2.10;99.90
4647;DHT22;2336;47.822;7.564;2023-12-04T06:20:41;-2.10;99.90
4647;DHT22;2336;47.822;7.564;2023-12-04T06:23:09;-2.10;99.90
4647;DHT22;2336;47.822;7.564;2023-12-04T06:25:36;-2.10;99.90
4647;DHT22;2336;47.822;7.564;2023-12-04T06:28:04;-2.10;99.90
4647;DHT22;2336;47.822;7.564;2023-12-04T06:30:31;-2.10;99.90
4647;DHT22;2336;47.822;7.564;2023-12-04T06:32:59;-2.10;99.90
4647;DHT22;2336;47.822;7.564;2023-12-04T06:35:26;-2.10;99.90
4647;DHT22;2336;47.822;7.564;2023-12-04T06:37:54;-2.10;99.90
4647;DHT22;2336;47.822;7.564;2023-12-04T06:40:23;-2.10;99.90
4647;DHT22;2336;47.822;7.564;2023-12-04T06:42:50;-2.10;99.90
4647;DHT22;2336;47.822;7.564;2023-12-04T06:45:18;-2.20;99.90
4647;DHT22;2336;47.822;7.564;2023-12-04T06:47:46;-2.10;99.90
4647;DHT22;2336;47.822;7.564;2023-12-04T06:50:16;-2.20;99.90
4647;DHT22;2336;47.822;7.564;2023-12-04T06:52:42;-2.20;99.90
4647;DHT22;2336;47.822;7.564;2023-12-04T06:55:09;-2.20;99.90
4647;DHT22;2336;47.822;7.564;2023-12-04T06:57:37;-2.20;99.90
4647;DHT22;2336;47.822;7.564;2023-12-04T07:00:05;-2.10;99.90
4647;DHT22;2336;47.822;7.564;2023-12-04T07:02:33;-2.10;99.90
4647;DHT22;2336;47.822;7.564;2023-12-04T07:05:00;-2.10;99.90
4647;DHT22;2336;47.822;7.564;2023-12-04T07:07:28;-2.10;99.90
4647;DHT22;2336;47.822;7.564;2023-12-04T07:09:55;-2.10;99.90
4647;DHT22;2336;47.822;7.564;2023-12-04T07:12:22;-2.10;99.90
4647;DHT22;2336;47.822;7.564;2023-12-04T07:14:50;-2.10;99.90
4647;DHT22;2336;47.822;7.564;2023-12-04T07:17:17;-2.10;99.90
4647;DHT22;2336;47.822;7.564;2023-12-04T07:19:43;-2.00;99.90
4647;DHT22;2336;47.822;7.564;2023-12-04T07:22:10;-2.10;99.90
4647;DHT22;2336;47.822;7.564;2023-12-04T07:24:37;-2.00;99.90
4647;DHT22;2336;47.822;7.564;2023-12-04T07:27:04;-2.10;99.90
4647;DHT22;2336;47.822;7.564;2023-12-04T07:29:31;-2.10;99.90
4647;DHT22;2336;47.822;7.564;2023-12-04T07:31:59;-2.10;99.90
4647;DHT22;2336;47.822;7.564;2023-12-04T07:34:26;-2.10;99.90
4647;DHT22;2336;47.822;7.564;2023-12-04T07:36:53;-2.10;99.90
4647;DHT22;2336;47.822;7.564;2023-12-04T07:39:20;-2.10;99.90
4647;DHT22;2336;47.822;7.564;2023-12-04T07:41:47;-2.10;99.90
4647;DHT22;2336;47.822;7.564;2023-12-04T07:44:14;-2.00;99.90
4647;DHT22;2336;47.822;7.564;2023-12-04T07:46:41;-2.00;99.90
4647;DHT22;2336;47.822;7.564;2023-12-04T07:49:09;-1.90;99.90
4647;DHT22;2336;47.822;7.564;2023-12-04T07:51:36;-1.80;99.90
4647;DHT22;2336;47.822;7.564;2023-12-04T07:54:03;-1.70;99.90
4647;DHT22;2336;47.822;7.564;2023-12-04T07:56:30;-1.80;99.90
4647;DHT22;2336;47.822;7.564;2023-12-04T07:58:57;-1.80;99.90
4647;DHT22;2336;47.822;7.564;2023-12-04T08:01:24;-1.80;99.90
4647;DHT22;2336;47.822;7.564;2023-12-04T08:03:51;-1.70;99.90
4647;DHT22;2336;47.822;7.564;2023-12-04T08:06:19;-1.70;99.90
4647;DHT22;2336;47.822;7.564;2023-12-04T08:08:45;-1.70;99.90
4647;DHT22;2336;47.822;7.564;2023-12-04T08:11:12;-1.60;99.90
4647;DHT22;2336;47.822;7.564;2023-12-04T08:13:39;-1.60;99.90
4647;DHT22;2336;47.822;7.564;2023-12-04T08:16:13;-1.60;99.90
4647;DHT22;2336;47.822;7.564;2023-12-04T08:18:40;-1.60;99.90
4647;DHT22;2336;47.822;7.564;2023-12-04T08:21:07;-1.50;99.90
4647;DHT22;2336;47.822;7.564;2023-12-04T08:23:36;-1.50;99.90
4647;DHT22;2336;47.822;7.564;2023-12-04T08:26:03;-1.50;99.90
4647;DHT22;2336;47.822;7.564;2023-12-04T08:28:30;-1.50;99.90
4647;DHT22;2336;47.822;7.564;2023-12-04T08:30:56;-1.60;99.90
4647;DHT22;2336;47.822;7.564;2023-12-04T08:33:23;-1.60;99.90
4647;DHT22;2336;47.822;7.564;2023-12-04T08:35:50;-1.60;99.90
4647;DHT22;2336;47.822;7.564;2023-12-04T08:38:17;-1.60;99.90
4647;DHT22;2336;47.822;7.564;2023-12-04T08:40:45;-1.60;99.90
4647;DHT22;2336;47.822;7.564;2023-12-04T08:43:13;-1.50;99.90
4647;DHT22;2336;47.822;7.564;2023-12-04T08:45:40;-1.60;99.90
4647;DHT22;2336;47.822;7.564;2023-12-04T08:48:07;-1.60;99.90
4647;DHT22;2336;47.822;7.564;2023-12-04T08:50:34;-1.50;99.90
4647;DHT22;2336;47.822;7.564;2023-12-04T08:53:02;-1.40;99.90
4647;DHT22;2336;47.822;7.564;2023-12-04T08:55:29;-1.40;99.90
4647;DHT22;2336;47.822;7.564;2023-12-04T08:57:57;-1.20;99.90
4647;DHT22;2336;47.822;7.564;2023-12-04T09:00:24;-1.30;99.90
4647;DHT22;2336;47.822;7.564;2023-12-04T09:02:50;-1.10;99.90
4647;DHT22;2336;47.822;7.564;2023-12-04T09:05:18;-1.10;99.90
4647;DHT22;2336;47.822;7.564;2023-12-04T09:07:45;-1.10;99.90
4647;DHT22;2336;47.822;7.564;2023-12-04T09:10:12;-1.10;99.90
4647;DHT22;2336;47.822;7.564;2023-12-04T09:12:39;-1.00;99.90
4647;DHT22;2336;47.822;7.564;2023-12-04T09:15:08;-0.90;99.90
4647;DHT22;2336;47.822;7.564;2023-12-04T09:17:35;-0.90;99.90
4647;DHT22;2336;47.822;7.564;2023-12-04T09:20:01;-0.80;99.90
4647;DHT22;2336;47.822;7.564;2023-12-04T09:22:31;-0.80;99.90
4647;DHT22;2336;47.822;7.564;2023-12-04T09:24:58;-0.70;99.90
4647;DHT22;2336;47.822;7.564;2023-12-04T09:27:24;-0.70;99.90
4647;DHT22;2336;47.822;7.564;2023-12-04T09:29:51;-0.60;99.90
4647;DHT22;2336;47.822;7.564;2023-12-04T09:32:20;-0.60;99.90
4647;DHT22;2336;47.822;7.564;2023-12-04T09:34:46;-0.60;99.90
4647;DHT22;2336;47.822;7.564;2023-12-04T09:37:13;-0.70;99.90
4647;DHT22;2336;47.822;7.564;2023-12-04T09:39:41;-0.70;99.90
4647;DHT22;2336;47.822;7.564;2023-12-04T09:42:08;-0.70;99.90
4647;DHT22;2336;47.822;7.564;2023-12-04T09:44:37;-0.60;99.90
4647;DHT22;2336;47.822;7.564;2023-12-04T09:47:05;-0.60;99.90
4647;DHT22;2336;47.822;7.564;2023-12-04T09:49:34;-0.70;99.90
4647;DHT22;2336;47.822;7.564;2023-12-04T09:52:02;-0.70;99.90
4647;DHT22;2336;47.822;7.564;2023-12-04T09:54:29;-0.60;99.90
4647;DHT22;2336;47.822;7.564;2023-12-04T09:56:56;-0.60;99.90
4647;DHT22;2336;47.822;7.564;2023-12-04T09:59:24;-0.50;99.90
4647;DHT22;2336;47.822;7.564;2023-12-04T10:01:51;-0.40;99.90
4647;DHT22;2336;47.822;7.564;2023-12-04T10:04:18;-0.40;99.90
4647;DHT22;2336;47.822;7.564;2023-12-04T10:06:50;-0.30;99.90
4647;DHT22;2336;47.822;7.564;2023-12-04T10:09:17;-0.30;99.90
4647;DHT22;2336;47.822;7.564;2023-12-04T10:11:44;-0.20;99.90
4647;DHT22;2336;47.822;7.564;2023-12-04T10:14:15;-0.20;99.90
4647;DHT22;2336;47.822;7.564;2023-12-04T10:16:43;0.00;99.90
4647;DHT22;2336;47.822;7.564;2023-12-04T10:19:17;0.00;99.90
4647;DHT22;2336;47.822;7.564;2023-12-04T10:21:45;0.10;99.90
4647;DHT22;2336;47.822;7.564;2023-12-04T10:24:27;0.10;99.90
4647;DHT22;2336;47.822;7.564;2023-12-04T10:26:54;0.10;99.90
4647;DHT22;2336;47.822;7.564;2023-12-04T10:29:22;0.20;99.90
4647;DHT22;2336;47.822;7.564;2023-12-04T10:31:50;0.20;99.90
4647;DHT22;2336;47.822;7.564;2023-12-04T10:34:18;0.30;99.90
4647;DHT22;2336;47.822;7.564;2023-12-04T10:36:46;0.30;99.90
4647;DHT22;2336;47.822;7.564;2023-12-04T10:39:14;0.40;99.90
4647;DHT22;2336;47.822;7.564;2023-12-04T10:41:41;0.50;99.90
4647;DHT22;2336;47.822;7.564;2023-12-04T10:44:08;0.70;99.90
4647;DHT22;2336;47.822;7.564;2023-12-04T10:46:36;0.90;99.90
4647;DHT22;2336;47.822;7.564;2023-12-04T10:49:04;1.10;99.90
4647;DHT22;2336;47.822;7.564;2023-12-04T10:51:31;1.40;99.90
4647;DHT22;2336;47.822;7.564;2023-12-04T10:53:58;1.60;99.90
4647;DHT22;2336;47.822;7.564;2023-12-04T10:56:35;1.70;99.90
4647;DHT22;2336;47.822;7.564;2023-12-04T10:59:07;1.90;99.90
4647;DHT22;2336;47.822;7.564;2023-12-04T11:01:35;2.10;99.90
4647;DHT22;2336;47.822;7.564;2023-12-04T11:04:03;2.20;99.90
4647;DHT22;2336;47.822;7.564;2023-12-04T11:06:35;2.40;99.90
4647;DHT22;2336;47.822;7.564;2023-12-04T11:09:03;2.40;99.90
4647;DHT22;2336;47.822;7.564;2023-12-04T11:11:35;2.40;99.90
4647;DHT22;2336;47.822;7.564;2023-12-04T11:14:05;2.50;99.90
4647;DHT22;2336;47.822;7.564;2023-12-04T11:16:40;2.50;99.90
4647;DHT22;2336;47.822;7.564;2023-12-04T11:19:15;2.50;99.90
4647;DHT22;2336;47.822;7.564;2023-12-04T11:21:45;2.60;99.90
4647;DHT22;2336;47.822;7.564;2023-12-04T11:24:12;2.60;99.90
4647;DHT22;2336;47.822;7.564;2023-12-04T11:26:40;2.60;99.90
4647;DHT22;2336;47.822;7.564;2023-12-04T11:29:08;2.80;99.90
4647;DHT22;2336;47.822;7.564;2023-12-04T11:31:36;2.90;99.90
4647;DHT22;2336;47.822;7.564;2023-12-04T11:34:04;3.00;99.90
4647;DHT22;2336;47.822;7.564;2023-12-04T11:36:31;3.10;99.90
4647;DHT22;2336;47.822;7.564;2023-12-04T11:38:58;3.10;99.90
4647;DHT22;2336;47.822;7.564;2023-12-04T11:41:26;3.10;99.90
4647;DHT22;2336;47.822;7.564;2023-12-04T11:43:56;3.10;99.90
4647;DHT22;2336;47.822;7.564;2023-12-04T11:46:24;3.10;99.90
4647;DHT22;2336;47.822;7.564;2023-12-04T11:48:54;3.10;99.90
4647;DHT22;2336;47.822;7.564;2023-12-04T11:51:45;3.00;99.90
4647;DHT22;2336;47.822;7.564;2023-12-04T11:54:17;3.00;99.90
4647;DHT22;2336;47.822;7.564;2023-12-04T11:56:57;2.90;99.90
4647;DHT22;2336;47.822;7.564;2023-12-04T11:59:26;2.90;99.90
4647;DHT22;2336;47.822;7.564;2023-12-04T12:01:54;2.80;99.90
4647;DHT22;2336;47.822;7.564;2023-12-04T12:04:21;2.90;99.90
4647;DHT22;2336;47.822;7.564;2023-12-04T12:06:49;2.80;99.90
4647;DHT22;2336;47.822;7.564;2023-12-04T12:09:16;2.80;99.90
4647;DHT22;2336;47.822;7.564;2023-12-04T12:11:43;2.70;99.90
4647;DHT22;2336;47.822;7.564;2023-12-04T12:14:10;2.70;99.90
4647;DHT22;2336;47.822;7.564;2023-12-04T12:16:39;2.70;99.90
4647;DHT22;2336;47.822;7.564;2023-12-04T12:19:05;2.70;99.90
4647;DHT22;2336;47.822;7.564;2023-12-04T12:21:32;2.70;99.90
4647;DHT22;2336;47.822;7.564;2023-12-04T12:24:00;2.70;99.90
4647;DHT22;2336;47.822;7.564;2023-12-04T12:26:28;2.60;99.90
4647;DHT22;2336;47.822;7.564;2023-12-04T12:28:55;2.60;99.90
4647;DHT22;2336;47.822;7.564;2023-12-04T12:31:22;2.60;99.90
4647;DHT22;2336;47.822;7.564;2023-12-04T12:33:50;2.60;99.90
4647;DHT22;2336;47.822;7.564;2023-12-04T12:36:18;2.60;99.90
4647;DHT22;2336;47.822;7.564;2023-12-04T12:38:45;2.60;99.90
4647;DHT22;2336;47.822;7.564;2023-12-04T12:41:15;2.70;99.90
4647;DHT22;2336;47.822;7.564;2023-12-04T12:43:42;2.70;99.90
4647;DHT22;2336;47.822;7.564;2023-12-04T12:46:10;2.80;99.90
4647;DHT22;2336;47.822;7.564;2023-12-04T12:48:36;2.90;99.90
4647;DHT22;2336;47.822;7.564;2023-12-04T12:51:06;3.00;99.90
4647;DHT22;2336;47.822;7.564;2023-12-04T12:53:33;3.20;99.90
4647;DHT22;2336;47.822;7.564;2023-12-04T12:56:01;3.20;99.90
4647;DHT22;2336;47.822;7.564;2023-12-04T12:58:28;3.40;99.90
4647;DHT22;2336;47.822;7.564;2023-12-04T13:00:55;3.60;99.90
4647;DHT22;2336;47.822;7.564;2023-12-04T13:03:22;3.80;99.90
4647;DHT22;2336;47.822;7.564;2023-12-04T13:05:48;3.90;99.90
4647;DHT22;2336;47.822;7.564;2023-12-04T13:08:17;3.90;99.90
4647;DHT22;2336;47.822;7.564;2023-12-04T13:10:43;4.00;99.90
4647;DHT22;2336;47.822;7.564;2023-12-04T13:13:10;4.00;99.90
4647;DHT22;2336;47.822;7.564;2023-12-04T13:15:37;4.00;99.90
4647;DHT22;2336;47.822;7.564;2023-12-04T13:18:04;4.10;99.90
4647;DHT22;2336;47.822;7.564;2023-12-04T13:20:31;4.10;99.90
4647;DHT22;2336;47.822;7.564;2023-12-04T13:22:59;4.30;99.90
4647;DHT22;2336;47.822;7.564;2023-12-04T13:25:27;4.40;99.90
4647;DHT22;2336;47.822;7.564;2023-12-04T13:27:54;4.60;99.90
4647;DHT22;2336;47.822;7.564;2023-12-04T13:30:21;4.60;99.90
4647;DHT22;2336;47.822;7.564;2023-12-04T13:32:48;4.60;99.90
4647;DHT22;2336;47.822;7.564;2023-12-04T13:35:15;4.60;99.90
4647;DHT22;2336;47.822;7.564;2023-12-04T13:37:42;4.60;99.90
4647;DHT22;2336;47.822;7.564;2023-12-04T13:40:10;4.70;99.90
4647;DHT22;2336;47.822;7.564;2023-12-04T13:42:43;4.80;99.90
4647;DHT22;2336;47.822;7.564;2023-12-04T13:45:27;5.00;99.90
4647;DHT22;2336;47.822;7.564;2023-12-04T13:47:54;4.90;99.90
4647;DHT22;2336;47.822;7.564;2023-12-04T13:50:20;4.90;99.90
4647;DHT22;2336;47.822;7.564;2023-12-04T13:52:47;4.80;99.90
4647;DHT22;2336;47.822;7.564;2023-12-04T13:55:21;4.70;99.90
4647;DHT22;2336;47.822;7.564;2023-12-04T13:58:03;4.70;99.90
4647;DHT22;2336;47.822;7.564;2023-12-04T14:00:36;4.70;99.90
4647;DHT22;2336;47.822;7.564;2023-12-04T14:03:03;4.60;99.90
4647;DHT22;2336;47.822;7.564;2023-12-04T14:05:30;4.60;99.90
4647;DHT22;2336;47.822;7.564;2023-12-04T14:07:57;4.60;99.90
4647;DHT22;2336;47.822;7.564;2023-12-04T14:10:24;4.60;99.90
4647;DHT22;2336;47.822;7.564;2023-12-04T14:12:52;4.50;99.90
4647;DHT22;2336;47.822;7.564;2023-12-04T14:15:20;4.40;99.90
4647;DHT22;2336;47.822;7.564;2023-12-04T14:17:47;4.40;99.90
4647;DHT22;2336;47.822;7.564;2023-12-04T14:20:15;4.40;99.90
4647;DHT22;2336;47.822;7.564;2023-12-04T14:22:45;4.40;99.90
4647;DHT22;2336;47.822;7.564;2023-12-04T14:25:12;4.40;99.90
4647;DHT22;2336;47.822;7.564;2023-12-04T14:27:38;4.30;99.90
4647;DHT22;2336;47.822;7.564;2023-12-04T14:30:07;4.30;99.90
4647;DHT22;2336;47.822;7.564;2023-12-04T14:32:36;4.40;99.90
4647;DHT22;2336;47.822;7.564;2023-12-04T14:35:04;4.30;99.90
4647;DHT22;2336;47.822;7.564;2023-12-04T14:37:32;4.20;99.90
4647;DHT22;2336;47.822;7.564;2023-12-04T14:40:00;4.20;99.90
4647;DHT22;2336;47.822;7.564;2023-12-04T14:42:27;4.20;99.90
4647;DHT22;2336;47.822;7.564;2023-12-04T14:44:54;4.20;99.90
4647;DHT22;2336;47.822;7.564;2023-12-04T14:47:21;4.30;99.90
4647;DHT22;2336;47.822;7.564;2023-12-04T14:49:50;4.20;99.90
4647;DHT22;2336;47.822;7.564;2023-12-04T14:52:20;4.20;99.90
4647;DHT22;2336;47.822;7.564;2023-12-04T14:54:48;4.10;99.90
4647;DHT22;2336;47.822;7.564;2023-12-04T14:57:38;4.00;99.90
4647;DHT22;2336;47.822;7.564;2023-12-04T15:00:22;3.90;99.90
4647;DHT22;2336;47.822;7.564;2023-12-04T15:03:35;3.90;99.90
4647;DHT22;2336;47.822;7.564;2023-12-04T15:06:20;3.80;99.90
4647;DHT22;2336;47.822;7.564;2023-12-04T15:09:09;3.80;99.90
4647;DHT22;2336;47.822;7.564;2023-12-04T15:11:59;3.80;99.90
4647;DHT22;2336;47.822;7.564;2023-12-04T15:14:47;3.80;99.90
4647;DHT22;2336;47.822;7.564;2023-12-04T15:17:18;3.80;99.90
4647;DHT22;2336;47.822;7.564;2023-12-04T15:19:55;3.80;99.90
4647;DHT22;2336;47.822;7.564;2023-12-04T15:22:47;3.90;99.90
4647;DHT22;2336;47.822;7.564;2023-12-04T15:25:13;4.00;99.90
4647;DHT22;2336;47.822;7.564;2023-12-04T15:27:40;4.00;99.90
4647;DHT22;2336;47.822;7.564;2023-12-04T15:30:07;4.00;99.90
4647;DHT22;2336;47.822;7.564;2023-12-04T15:32:34;4.10;99.90
4647;DHT22;2336;47.822;7.564;2023-12-04T15:35:00;4.20;99.90
4647;DHT22;2336;47.822;7.564;2023-12-04T15:37:27;4.30;99.90
4647;DHT22;2336;47.822;7.564;2023-12-04T15:39:54;4.30;99.90
4647;DHT22;2336;47.822;7.564;2023-12-04T15:42:21;4.40;99.90
4647;DHT22;2336;47.822;7.564;2023-12-04T15:44:47;4.40;99.90
4647;DHT22;2336;47.822;7.564;2023-12-04T15:47:14;4.30;99.90
4647;DHT22;2336;47.822;7.564;2023-12-04T15:49:39;4.30;99.90
4647;DHT22;2336;47.822;7.564;2023-12-04T15:52:06;4.30;99.90
4647;DHT22;2336;47.822;7.564;2023-12-04T15:54:33;4.40;99.90
4647;DHT22;2336;47.822;7.564;2023-12-04T15:57:01;4.30;99.90
4647;DHT22;2336;47.822;7.564;2023-12-04T15:59:27;4.40;99.90
4647;DHT22;2336;47.822;7.564;2023-12-04T16:01:54;4.40;99.90
4647;DHT22;2336;47.822;7.564;2023-12-04T16:04:20;4.50;99.90
4647;DHT22;2336;47.822;7.564;2023-12-04T16:06:47;4.50;99.90
4647;DHT22;2336;47.822;7.564;2023-12-04T16:09:14;4.60;99.90
4647;DHT22;2336;47.822;7.564;2023-12-04T16:11:41;4.70;99.90